Time;durP1;ratioP1;P1;durP2;ratioP2;P2;SDS_P1;SDS_P2;PMS_P1;PMS_P2;Temp;Humidity;BMP_temperature;BMP_pressure;BME280_temperature;BME280_humidity;BME280_pressure;Samples;Min_cycle;Max_cycle;Signal;HPM_P1;HPM_P2
2023/01/19 00:00:49;;;;;;;2.80;2.10;;;-0.90;98.00;;;;;;5050776;28;20464;-68
2023/01/19 00:03:16;;;;;;;2.70;2.40;;;-0.80;98.00;;;;;;5050627;28;20880;-68
2023/01/19 00:05:44;;;;;;;4.33;2.40;;;-0.70;98.00;;;;;;5033202;28;20467;-68
2023/01/19 00:08:14;;;;;;;3.83;2.30;;;-0.80;98.00;;;;;;5050720;28;20485;-67
2023/01/19 00:10:42;;;;;;;4.73;2.70;;;-0.80;98.00;;;;;;5054715;28;20491;-68
2023/01/19 00:13:09;;;;;;;3.90;2.20;;;-0.90;98.00;;;;;;5054755;28;20544;-68
2023/01/19 00:15:38;;;;;;;3.93;3.00;;;-1.00;98.00;;;;;;5054515;28;20635;-68
2023/01/19 00:18:05;;;;;;;7.97;3.90;;;-0.90;98.00;;;;;;5054419;28;20463;-68
2023/01/19 00:20:34;;;;;;;4.50;2.40;;;-1.00;98.00;;;;;;5054554;28;20939;-68
2023/01/19 00:23:01;;;;;;;6.27;3.83;;;-1.00;98.00;;;;;;5054480;28;20455;-68
2023/01/19 00:25:28;;;;;;;3.17;2.47;;;-1.00;98.00;;;;;;5054237;28;20456;-68
2023/01/19 00:27:55;;;;;;;4.33;2.80;;;-1.10;98.00;;;;;;5054009;28;20480;-68
2023/01/19 00:30:23;;;;;;;4.40;2.67;;;-1.10;98.00;;;;;;5054258;28;20465;-68
2023/01/19 00:32:51;;;;;;;4.67;2.43;;;-1.10;98.00;;;;;;5053526;28;20860;-68
2023/01/19 00:35:19;;;;;;;8.23;3.20;;;-1.10;98.00;;;;;;5054098;28;20459;-67
2023/01/19 00:37:46;;;;;;;4.50;2.50;;;-1.10;98.00;;;;;;5036325;28;20456;-67
2023/01/19 00:40:13;;;;;;;3.00;2.77;;;-1.10;98.00;;;;;;5019887;28;20476;-67
2023/01/19 00:42:43;;;;;;;4.90;3.10;;;-1.10;98.00;;;;;;5054024;28;20465;-67
2023/01/19 00:45:11;;;;;;;6.50;2.20;;;-1.20;98.00;;;;;;5053852;28;20461;-67
2023/01/19 00:47:39;;;;;;;3.20;2.13;;;-1.10;98.00;;;;;;5053734;28;20452;-68
2023/01/19 00:50:10;;;;;;;4.40;2.60;;;-1.20;98.00;;;;;;5053877;28;20464;-68
2023/01/19 00:52:38;;;;;;;4.20;2.90;;;-1.10;98.00;;;;;;5053620;28;20457;-68
2023/01/19 00:55:07;;;;;;;4.27;2.63;;;-1.20;98.00;;;;;;5053802;28;20556;-67
2023/01/19 00:57:34;;;;;;;2.80;2.30;;;-1.20;98.00;;;;;;5053782;28;20455;-67
2023/01/19 01:00:04;;;;;;;3.67;2.37;;;-1.30;98.00;;;;;;5053691;28;20518;-68
2023/01/19 01:02:31;;;;;;;2.20;1.87;;;-1.30;98.00;;;;;;5053599;28;20464;-67
2023/01/19 01:05:01;;;;;;;2.83;2.03;;;-1.20;98.00;;;;;;5035910;28;20812;-68
2023/01/19 01:07:33;;;;;;;3.60;2.80;;;-1.30;98.00;;;;;;5053458;28;20455;-68
2023/01/19 01:10:01;;;;;;;2.03;1.90;;;-1.20;98.00;;;;;;5053987;28;20455;-68
2023/01/19 01:12:28;;;;;;;3.40;2.47;;;-1.20;98.00;;;;;;5053464;28;20455;-68
2023/01/19 01:14:56;;;;;;;2.63;2.43;;;-1.20;98.00;;;;;;5053507;28;20531;-68
2023/01/19 01:17:23;;;;;;;9.20;2.90;;;-1.30;98.00;;;;;;5053217;28;20486;-68
2023/01/19 01:19:51;;;;;;;3.67;2.60;;;-1.40;98.00;;;;;;5052756;28;20509;-68
2023/01/19 01:22:18;;;;;;;2.70;1.93;;;-1.30;98.00;;;;;;5053264;28;20464;-68
2023/01/19 01:24:47;;;;;;;3.37;2.70;;;-1.40;98.00;;;;;;5035539;28;20457;-68
2023/01/19 01:27:14;;;;;;;5.53;2.47;;;-1.40;98.00;;;;;;5053106;28;20457;-67
2023/01/19 01:29:45;;;;;;;1.93;1.83;;;-1.40;98.00;;;;;;5035409;28;20977;-68
2023/01/19 01:32:13;;;;;;;2.83;1.80;;;-1.40;98.00;;;;;;5053117;28;20935;-68
2023/01/19 01:34:40;;;;;;;3.43;2.53;;;-1.40;98.00;;;;;;5052887;28;20508;-68
2023/01/19 01:37:07;;;;;;;3.23;2.50;;;-1.30;98.00;;;;;;5052903;28;20820;-67
2023/01/19 01:39:35;;;;;;;3.30;1.93;;;-1.30;98.00;;;;;;5052762;28;20488;-67
2023/01/19 01:42:03;;;;;;;2.63;2.27;;;-1.30;98.00;;;;;;5053059;28;20811;-67
2023/01/19 01:44:49;;;;;;;4.70;2.70;;;-1.20;98.00;;;;;;5052806;28;20508;-67
2023/01/19 01:47:22;;;;;;;4.70;2.27;;;-1.30;98.00;;;;;;5052565;28;20861;-68
2023/01/19 01:49:53;;;;;;;2.70;1.93;;;-1.20;98.00;;;;;;5034797;28;21063;-68
2023/01/19 01:52:22;;;;;;;3.90;2.13;;;-1.30;98.00;;;;;;5052608;28;20830;-67
2023/01/19 01:54:51;;;;;;;2.77;1.77;;;-1.30;98.00;;;;;;5052630;28;20977;-68
2023/01/19 01:57:21;;;;;;;2.30;1.87;;;-1.30;98.00;;;;;;5018947;28;20553;-68
2023/01/19 01:59:49;;;;;;;4.43;2.27;;;-1.30;98.00;;;;;;5052451;28;20453;-68
2023/01/19 02:05:09;;;;;;;2.33;2.00;;;-1.20;98.00;;;;;;5052518;28;20451;-67
2023/01/19 02:13:20;;;;;;;3.83;1.77;;;-1.00;98.00;;;;;;5052544;28;20565;-68
2023/01/19 02:15:48;;;;;;;2.40;1.90;;;-1.00;98.00;;;;;;5052284;28;20500;-68
2023/01/19 02:18:15;;;;;;;2.30;1.87;;;-0.90;98.00;;;;;;5052175;28;20692;-68
2023/01/19 02:20:48;;;;;;;1.60;1.50;;;-1.00;98.00;;;;;;5052246;28;20459;-68
2023/01/19 02:23:22;;;;;;;3.67;2.10;;;-1.00;98.00;;;;;;5052147;28;20481;-68
2023/01/19 02:25:52;;;;;;;3.00;1.97;;;-1.10;98.00;;;;;;5051992;28;20819;-68
2023/01/19 02:28:35;;;;;;;2.27;2.07;;;-1.20;98.00;;;;;;5150130;27;20556;-64
2023/01/19 02:31:02;;;;;;;3.07;2.17;;;-1.20;98.00;;;;;;5129417;28;20457;-63
2023/01/19 02:33:30;;;;;;;5.30;2.23;;;-1.10;98.00;;;;;;5129313;28;20459;-63
2023/01/19 02:35:58;;;;;;;3.30;2.57;;;-1.10;98.00;;;;;;5129571;27;20537;-63
2023/01/19 02:38:27;;;;;;;3.10;2.40;;;-1.10;98.00;;;;;;5129317;28;20510;-64
2023/01/19 02:40:57;;;;;;;3.50;2.60;;;-1.10;98.00;;;;;;5129404;28;20953;-63
2023/01/19 02:43:24;;;;;;;4.30;2.47;;;-1.10;98.00;;;;;;5127961;28;20969;-63
2023/01/19 02:45:54;;;;;;;3.93;2.60;;;-1.00;98.00;;;;;;5129479;28;20810;-64
2023/01/19 02:48:22;;;;;;;2.60;2.00;;;-0.80;98.00;;;;;;5127796;28;20495;-64
2023/01/19 02:50:51;;;;;;;6.60;3.27;;;-0.80;98.00;;;;;;5129185;28;20947;-64
2023/01/19 02:53:49;;;;;;;2.60;1.83;;;-0.80;98.00;;;;;;5128925;27;20556;-64
2023/01/19 02:56:52;;;;;;;2.13;1.97;;;-0.70;98.00;;;;;;5128950;28;20467;-64
2023/01/19 02:59:36;;;;;;;2.07;1.93;;;-0.50;98.00;;;;;;5128909;28;20460;-64
2023/01/19 03:02:26;;;;;;;9.60;3.33;;;-0.60;98.00;;;;;;5128995;28;20961;-63
2023/01/19 03:05:16;;;;;;;3.53;2.33;;;-0.50;98.00;;;;;;5129221;28;20901;-64
2023/01/19 03:07:52;;;;;;;4.83;3.03;;;-0.60;98.00;;;;;;5128901;28;20880;-63
2023/01/19 03:10:28;;;;;;;1.50;1.37;;;-0.40;98.00;;;;;;5129189;28;20828;-64
2023/01/19 03:13:01;;;;;;;3.83;2.47;;;-0.40;98.00;;;;;;5128931;28;20446;-64
2023/01/19 03:15:32;;;;;;;2.40;2.00;;;-0.40;98.00;;;;;;5128748;28;20453;-64
2023/01/19 03:18:03;;;;;;;6.47;2.40;;;-0.40;98.00;;;;;;5128907;27;20738;-64
2023/01/19 03:20:31;;;;;;;3.53;2.47;;;-0.50;98.00;;;;;;5128606;28;20456;-64
2023/01/19 03:23:01;;;;;;;2.60;1.83;;;-0.80;98.00;;;;;;5128528;28;20456;-64
2023/01/19 03:25:30;;;;;;;2.20;2.03;;;-0.80;98.00;;;;;;5128398;28;20468;-64
2023/01/19 03:27:58;;;;;;;3.97;2.57;;;-0.80;98.00;;;;;;5128331;27;20484;-64
2023/01/19 03:30:28;;;;;;;4.33;2.33;;;-0.90;98.00;;;;;;5128309;27;20449;-64
2023/01/19 03:33:06;;;;;;;3.43;2.40;;;-0.90;98.00;;;;;;5128314;28;20457;-64
2023/01/19 03:35:37;;;;;;;3.00;2.50;;;-0.80;98.00;;;;;;5128339;28;20869;-64
2023/01/19 03:38:07;;;;;;;2.57;1.77;;;-0.90;98.00;;;;;;5123512;27;20530;-64
2023/01/19 03:40:36;;;;;;;3.67;1.77;;;-0.90;98.00;;;;;;5114547;28;20832;-64
2023/01/19 03:43:04;;;;;;;8.93;3.73;;;-0.90;98.00;;;;;;5114530;28;20456;-63
2023/01/19 03:45:33;;;;;;;4.13;1.83;;;-0.90;98.00;;;;;;5114430;28;20466;-64
2023/01/19 03:48:02;;;;;;;3.47;2.67;;;-1.00;98.00;;;;;;5114199;28;20478;-64
2023/01/19 03:50:30;;;;;;;2.83;2.30;;;-0.90;98.00;;;;;;5114255;28;20461;-64
2023/01/19 03:53:05;;;;;;;3.87;1.90;;;-0.70;98.00;;;;;;5114461;28;20461;-64
2023/01/19 03:55:33;;;;;;;2.10;1.97;;;-0.70;98.00;;;;;;5114342;28;20461;-64
2023/01/19 03:58:03;;;;;;;4.90;2.63;;;-0.70;98.00;;;;;;5113092;28;20452;-64
2023/01/19 04:00:30;;;;;;;3.27;2.43;;;-0.70;98.00;;;;;;5114993;28;20506;-64
2023/01/19 04:02:57;;;;;;;4.37;2.47;;;-0.50;98.00;;;;;;5114690;28;20484;-64
2023/01/19 04:05:26;;;;;;;3.17;2.30;;;-0.60;98.00;;;;;;5115429;28;20445;-64
2023/01/19 04:07:53;;;;;;;4.40;2.50;;;-0.50;98.00;;;;;;5114221;28;21028;-64
2023/01/19 04:10:21;;;;;;;3.73;2.70;;;-0.50;98.00;;;;;;5114274;28;20453;-64
2023/01/19 04:12:48;;;;;;;3.40;2.33;;;-0.60;98.00;;;;;;5113986;28;20473;-64
2023/01/19 04:15:17;;;;;;;2.50;2.10;;;-0.70;98.00;;;;;;5114136;28;20802;-64
2023/01/19 04:17:44;;;;;;;4.07;2.50;;;-0.70;98.00;;;;;;5113850;28;20457;-63
2023/01/19 04:20:11;;;;;;;4.60;2.20;;;-0.60;98.00;;;;;;5113838;28;20453;-64
2023/01/19 04:22:40;;;;;;;4.67;1.93;;;-0.50;98.00;;;;;;5113599;28;20526;-63
2023/01/19 04:25:08;;;;;;;4.87;2.50;;;-0.50;98.00;;;;;;5113832;28;20975;-64
2023/01/19 04:27:36;;;;;;;2.40;1.93;;;-0.40;98.00;;;;;;5113372;28;20482;-64
2023/01/19 04:30:03;;;;;;;3.20;2.53;;;-0.50;98.00;;;;;;5113656;28;20526;-64
2023/01/19 04:32:32;;;;;;;4.20;2.90;;;-0.50;98.00;;;;;;5113793;28;20462;-64
2023/01/19 04:34:59;;;;;;;3.37;2.20;;;-0.50;98.00;;;;;;5113594;28;20449;-63
2023/01/19 04:37:29;;;;;;;2.87;1.90;;;-0.50;98.00;;;;;;5113456;28;20461;-65
2023/01/19 04:39:58;;;;;;;2.77;2.20;;;-0.60;98.00;;;;;;5113420;28;21026;-64
2023/01/19 04:42:26;;;;;;;2.60;2.40;;;-0.60;98.00;;;;;;5113194;28;20944;-64
2023/01/19 04:44:53;;;;;;;3.70;2.27;;;-0.60;98.00;;;;;;5113408;28;20857;-63
2023/01/19 04:47:20;;;;;;;3.97;2.27;;;-0.70;98.00;;;;;;5111429;28;20563;-64
2023/01/19 04:49:47;;;;;;;2.50;2.07;;;-0.70;98.00;;;;;;5112478;28;20943;-63
2023/01/19 04:52:14;;;;;;;5.77;3.10;;;-0.50;98.00;;;;;;5113081;28;20457;-64
2023/01/19 04:54:44;;;;;;;3.50;2.10;;;-0.50;98.00;;;;;;5113001;28;20449;-64
2023/01/19 04:57:13;;;;;;;6.63;2.30;;;-0.50;98.00;;;;;;5113470;28;20450;-64
2023/01/19 04:59:40;;;;;;;7.43;2.43;;;-0.50;98.00;;;;;;5112884;28;20447;-63
2023/01/19 05:02:07;;;;;;;2.17;1.90;;;-0.60;98.00;;;;;;5112990;28;20458;-64
2023/01/19 05:04:34;;;;;;;1.87;1.77;;;-0.60;98.00;;;;;;5112960;28;20458;-63
2023/01/19 05:07:01;;;;;;;3.67;2.80;;;-0.50;98.00;;;;;;5113114;28;20680;-64
2023/01/19 05:09:28;;;;;;;1.60;1.30;;;-0.50;98.00;;;;;;5113037;28;20451;-64
2023/01/19 05:11:55;;;;;;;4.30;2.30;;;-0.50;98.00;;;;;;5112977;28;20453;-64
2023/01/19 05:14:24;;;;;;;4.10;2.30;;;-0.50;98.00;;;;;;5112878;27;20453;-64
2023/01/19 05:16:51;;;;;;;3.87;2.30;;;-0.60;98.00;;;;;;5112827;28;20465;-63
2023/01/19 05:19:18;;;;;;;1.70;1.63;;;-0.60;98.00;;;;;;5112708;28;20885;-64
2023/01/19 05:21:45;;;;;;;3.20;2.13;;;-0.60;98.00;;;;;;5112456;28;20461;-64
2023/01/19 05:24:12;;;;;;;5.60;2.77;;;-0.70;98.00;;;;;;5112370;28;20463;-64
2023/01/19 05:26:39;;;;;;;3.60;2.53;;;-0.80;98.00;;;;;;5112356;28;20886;-64
2023/01/19 05:29:07;;;;;;;2.97;2.10;;;-0.70;98.00;;;;;;5112418;28;20814;-63
2023/01/19 05:31:35;;;;;;;3.30;2.50;;;-0.70;98.00;;;;;;5112379;28;20751;-64
2023/01/19 05:34:06;;;;;;;3.83;2.40;;;-0.80;98.00;;;;;;5112300;28;20453;-64
2023/01/19 05:36:33;;;;;;;3.10;2.27;;;-0.90;98.00;;;;;;5112118;28;20455;-63
2023/01/19 05:39:00;;;;;;;2.80;2.30;;;-0.70;98.00;;;;;;5112259;28;20460;-64
2023/01/19 05:41:29;;;;;;;4.30;2.53;;;-0.70;98.00;;;;;;5112218;28;20458;-64
2023/01/19 05:43:57;;;;;;;3.93;2.13;;;-0.80;98.00;;;;;;5112097;28;21032;-64
2023/01/19 05:46:24;;;;;;;2.90;1.97;;;-0.70;98.00;;;;;;5112170;28;20735;-63
2023/01/19 05:48:52;;;;;;;2.63;2.20;;;-0.60;98.00;;;;;;5111795;28;20974;-64
2023/01/19 05:51:19;;;;;;;4.17;2.03;;;-0.50;98.00;;;;;;5112020;28;20473;-64
2023/01/19 05:53:46;;;;;;;1.97;1.80;;;-0.50;98.00;;;;;;5111766;28;20467;-64
2023/01/19 05:56:13;;;;;;;2.50;1.63;;;-0.50;98.00;;;;;;5112146;28;20479;-64
2023/01/19 05:58:40;;;;;;;5.00;2.93;;;-0.50;98.00;;;;;;5111955;28;20469;-64
2023/01/19 06:01:09;;;;;;;3.47;2.57;;;-0.40;98.00;;;;;;5111614;28;20454;-64
2023/01/19 06:03:38;;;;;;;2.40;2.10;;;-0.40;98.00;;;;;;5110518;28;20865;-64
2023/01/19 06:06:07;;;;;;;2.30;2.20;;;-0.50;98.00;;;;;;5111864;28;20460;-64
2023/01/19 06:08:34;;;;;;;1.90;1.50;;;-0.60;98.00;;;;;;5111710;28;20510;-64
2023/01/19 06:11:01;;;;;;;4.10;2.87;;;-0.50;98.00;;;;;;5111072;28;20458;-64
2023/01/19 06:13:28;;;;;;;3.77;2.80;;;-0.60;98.00;;;;;;5111952;28;20458;-64
2023/01/19 06:15:59;;;;;;;4.77;2.50;;;-0.80;98.00;;;;;;5110547;28;20465;-64
2023/01/19 06:18:26;;;;;;;3.13;1.93;;;-0.80;98.00;;;;;;5111859;28;20455;-64
2023/01/19 06:20:57;;;;;;;5.10;2.67;;;-0.90;98.00;;;;;;5111588;28;20453;-64
2023/01/19 06:23:26;;;;;;;2.70;2.10;;;-1.00;98.00;;;;;;5111659;28;20841;-63
2023/01/19 06:25:53;;;;;;;3.20;2.17;;;-1.10;98.00;;;;;;5111727;28;20874;-64
2023/01/19 06:28:20;;;;;;;2.27;1.80;;;-1.10;98.00;;;;;;5093390;28;20477;-64
2023/01/19 06:30:50;;;;;;;1.93;1.60;;;-1.20;98.00;;;;;;5111463;28;20461;-64
2023/01/19 06:33:17;;;;;;;1.70;1.60;;;-1.20;98.00;;;;;;5111556;28;20541;-64
2023/01/19 06:35:56;;;;;;;4.20;3.13;;;-1.20;98.00;;;;;;5111468;28;20448;-64
2023/01/19 06:38:25;;;;;;;3.83;2.80;;;-1.10;98.00;;;;;;5110181;28;20457;-64
2023/01/19 06:40:53;;;;;;;5.83;3.57;;;-1.20;98.00;;;;;;5110318;28;20465;-64
2023/01/19 06:43:21;;;;;;;3.47;2.37;;;-1.20;98.00;;;;;;5111411;28;20511;-64
2023/01/19 06:45:48;;;;;;;5.00;2.90;;;-1.10;98.00;;;;;;5111363;28;20458;-64
2023/01/19 06:48:16;;;;;;;3.10;2.17;;;-1.00;98.00;;;;;;5111285;28;20481;-64
2023/01/19 06:50:45;;;;;;;2.03;1.80;;;-0.90;98.00;;;;;;5111305;28;20453;-64
2023/01/19 06:53:13;;;;;;;6.90;2.20;;;-0.90;98.00;;;;;;5110203;28;20536;-64
2023/01/19 06:55:42;;;;;;;9.10;2.63;;;-0.90;98.00;;;;;;5111326;28;20959;-64
2023/01/19 06:58:10;;;;;;;3.17;2.83;;;-0.90;98.00;;;;;;5111311;28;20696;-64
2023/01/19 07:00:37;;;;;;;2.87;2.60;;;-1.10;98.00;;;;;;5111203;28;20978;-60
2023/01/19 07:03:06;;;;;;;4.40;3.07;;;-1.10;98.00;;;;;;5111246;28;20458;-60
2023/01/19 07:05:35;;;;;;;5.63;2.77;;;-1.10;98.00;;;;;;5111339;28;20545;-61
2023/01/19 07:08:02;;;;;;;3.10;1.90;;;-1.20;98.00;;;;;;5111121;28;20513;-60
2023/01/19 07:10:29;;;;;;;4.30;2.20;;;-1.30;98.00;;;;;;5111270;28;20448;-61
2023/01/19 07:12:58;;;;;;;4.07;2.40;;;-1.40;98.00;;;;;;5111301;28;20458;-61
2023/01/19 07:15:25;;;;;;;4.90;2.37;;;-1.40;98.00;;;;;;5115165;28;20468;-61
2023/01/19 07:17:52;;;;;;;10.20;2.47;;;-1.60;98.00;;;;;;5114967;28;20458;-61
2023/01/19 07:20:20;;;;;;;2.07;1.93;;;-1.70;98.00;;;;;;5115243;28;20452;-61
2023/01/19 07:22:47;;;;;;;3.20;2.37;;;-1.70;98.00;;;;;;5114777;28;20449;-61
2023/01/19 07:25:15;;;;;;;3.87;2.63;;;-1.60;98.00;;;;;;5114927;28;20457;-61
2023/01/19 07:27:43;;;;;;;3.33;2.73;;;-1.50;98.00;;;;;;5114540;28;20463;-60
2023/01/19 07:30:15;;;;;;;3.23;2.40;;;-1.50;98.00;;;;;;5096829;28;20464;-62
2023/01/19 07:32:43;;;;;;;5.20;3.10;;;-1.40;98.00;;;;;;5114609;28;20530;-61
2023/01/19 07:35:10;;;;;;;13.70;3.30;;;-1.30;98.00;;;;;;5114665;28;20660;-61
2023/01/19 07:37:37;;;;;;;1.73;1.67;;;-1.30;98.00;;;;;;5114530;28;20951;-61
2023/01/19 07:40:05;;;;;;;3.17;2.60;;;-1.20;98.00;;;;;;5114592;28;20481;-61
2023/01/19 07:42:32;;;;;;;2.97;2.50;;;-1.20;98.00;;;;;;5114368;28;20546;-61
2023/01/19 07:44:59;;;;;;;6.07;3.37;;;-1.10;98.00;;;;;;5114476;28;20453;-61
2023/01/19 07:47:28;;;;;;;1.70;1.67;;;-1.10;98.00;;;;;;5114279;28;20449;-61
2023/01/19 07:49:55;;;;;;;1.97;1.90;;;-1.00;98.00;;;;;;5114120;28;20479;-61
2023/01/19 07:52:23;;;;;;;2.93;2.43;;;-0.90;98.00;;;;;;5114382;28;20952;-61
2023/01/19 07:54:50;;;;;;;2.70;1.97;;;-0.90;98.00;;;;;;5114362;28;20831;-61
2023/01/19 07:57:18;;;;;;;4.43;2.40;;;-0.90;98.00;;;;;;5114421;28;20460;-61
2023/01/19 07:59:45;;;;;;;2.60;2.13;;;-0.90;98.00;;;;;;5114101;28;20502;-61
2023/01/19 08:02:12;;;;;;;4.77;3.27;;;-0.80;98.00;;;;;;5114194;28;20449;-61
2023/01/19 08:04:40;;;;;;;3.93;2.20;;;-0.70;98.00;;;;;;5114165;28;20462;-61
2023/01/19 08:07:08;;;;;;;3.80;2.10;;;-0.70;98.00;;;;;;5114122;28;20464;-61
2023/01/19 08:09:35;;;;;;;1.97;1.90;;;-0.70;98.00;;;;;;5114078;28;20481;-61
2023/01/19 08:12:05;;;;;;;2.57;2.10;;;-0.70;98.00;;;;;;5114460;28;20882;-62
2023/01/19 08:14:33;;;;;;;2.50;2.07;;;-0.50;98.00;;;;;;5113949;28;20453;-62
2023/01/19 08:17:00;;;;;;;3.50;1.70;;;-0.40;98.00;;;;;;5112860;28;20639;-61
2023/01/19 08:19:29;;;;;;;3.77;1.70;;;-0.20;98.00;;;;;;5113847;28;20487;-61
2023/01/19 08:21:58;;;;;;;2.27;2.07;;;-0.20;98.00;;;;;;5113852;28;20459;-61
2023/01/19 08:24:27;;;;;;;5.47;2.10;;;-0.20;98.00;;;;;;5113514;28;20454;-61
2023/01/19 08:26:58;;;;;;;2.80;1.83;;;-0.30;98.00;;;;;;5112267;28;20461;-61
2023/01/19 08:29:42;;;;;;;2.67;2.17;;;-0.30;98.00;;;;;;5114154;28;20487;-61
2023/01/19 08:32:09;;;;;;;5.83;2.93;;;-0.30;98.00;;;;;;5114306;28;20456;-61
2023/01/19 18:47:46;;;;;;;6.90;2.83;;;0.90;98.00;;;;;;5115159;22;20851;-65
2023/01/19 18:50:13;;;;;;;4.70;2.83;;;0.90;98.00;;;;;;5111913;28;20485;-65
2023/01/19 18:52:41;;;;;;;5.23;2.90;;;0.80;98.00;;;;;;5111751;28;20482;-65
2023/01/19 18:55:09;;;;;;;3.20;2.50;;;0.70;98.00;;;;;;5112051;28;20450;-65
2023/01/19 18:57:38;;;;;;;4.03;2.50;;;0.70;98.00;;;;;;5111522;28;20976;-65
2023/01/19 19:00:07;;;;;;;3.53;2.37;;;0.60;98.00;;;;;;5111184;28;20523;-65
2023/01/19 19:02:36;;;;;;;4.10;2.73;;;0.60;98.00;;;;;;5111220;28;20482;-67
2023/01/19 19:05:05;;;;;;;5.23;2.87;;;0.60;98.00;;;;;;5111251;28;20457;-66
2023/01/19 19:07:32;;;;;;;4.00;3.07;;;0.70;98.00;;;;;;5111932;28;20458;-66
2023/01/19 19:10:00;;;;;;;4.03;3.57;;;1.00;98.00;;;;;;5113370;28;20485;-66
2023/01/19 19:12:28;;;;;;;5.17;3.03;;;1.20;98.00;;;;;;5115981;28;20447;-66
2023/01/19 19:14:55;;;;;;;2.27;1.77;;;1.30;98.00;;;;;;5108666;28;20442;-67
2023/01/19 19:17:22;;;;;;;6.10;4.07;;;1.20;98.00;;;;;;5115901;28;20462;-65
2023/01/19 19:19:53;;;;;;;7.13;2.57;;;1.20;98.00;;;;;;5115689;28;20451;-65
2023/01/19 19:22:22;;;;;;;6.17;3.83;;;1.00;98.00;;;;;;5115793;28;20501;-65
2023/01/19 19:24:50;;;;;;;8.43;4.10;;;1.00;98.00;;;;;;5115821;28;20454;-66
2023/01/19 19:27:17;;;;;;;4.83;2.93;;;0.90;98.00;;;;;;5115830;28;20451;-66
2023/01/19 19:29:47;;;;;;;3.63;2.73;;;0.90;98.00;;;;;;5115631;28;20487;-65
2023/01/19 19:32:19;;;;;;;8.00;3.17;;;0.80;98.00;;;;;;5115757;28;20450;-65
2023/01/19 19:34:49;;;;;;;5.60;3.50;;;0.70;98.00;;;;;;5115579;28;20450;-65
2023/01/19 19:37:16;;;;;;;4.50;3.17;;;0.70;98.00;;;;;;5115326;28;20461;-65
2023/01/19 19:39:45;;;;;;;8.33;4.10;;;0.70;98.00;;;;;;5115247;28;20460;-65
2023/01/19 19:42:12;;;;;;;5.43;3.20;;;0.70;98.00;;;;;;5097103;28;20466;-65
2023/01/19 19:44:39;;;;;;;7.47;3.63;;;0.60;98.00;;;;;;5115029;28;20518;-66
2023/01/19 19:47:06;;;;;;;4.23;3.40;;;0.60;98.00;;;;;;5114846;28;20463;-65
2023/01/19 19:49:33;;;;;;;2.60;2.10;;;0.60;98.00;;;;;;5114737;28;21011;-65
2023/01/19 19:52:00;;;;;;;4.20;2.87;;;0.70;98.00;;;;;;5115231;28;20827;-65
2023/01/19 19:54:28;;;;;;;3.30;2.77;;;0.70;98.00;;;;;;5115015;28;20458;-65
2023/01/19 19:56:56;;;;;;;7.13;3.53;;;0.70;98.00;;;;;;5114800;28;20462;-65
2023/01/19 19:59:23;;;;;;;4.67;2.77;;;0.70;98.00;;;;;;5114913;28;20451;-65
2023/01/19 20:01:53;;;;;;;3.40;2.97;;;0.60;98.00;;;;;;5096947;28;20844;-65
2023/01/19 20:04:22;;;;;;;7.07;3.10;;;0.50;98.00;;;;;;5114777;28;20496;-65
2023/01/19 20:06:49;;;;;;;11.77;3.80;;;0.50;98.00;;;;;;5114878;28;20455;-65
2023/01/19 20:09:17;;;;;;;9.73;3.47;;;0.60;98.00;;;;;;5096469;28;20478;-65
2023/01/19 20:11:47;;;;;;;5.43;3.60;;;0.70;98.00;;;;;;5114886;28;21012;-65
2023/01/19 20:14:16;;;;;;;5.40;3.33;;;0.70;98.00;;;;;;5114696;28;20463;-65
2023/01/19 20:16:44;;;;;;;8.37;4.50;;;0.80;98.00;;;;;;5122180;27;20464;-65
2023/01/19 20:19:11;;;;;;;5.10;2.67;;;0.60;98.00;;;;;;5135289;27;20831;-66
2023/01/19 20:21:41;;;;;;;5.70;3.10;;;0.60;98.00;;;;;;5134881;27;20793;-65
2023/01/19 20:24:12;;;;;;;5.60;3.27;;;0.50;98.00;;;;;;5135015;27;20778;-66
2023/01/19 20:26:42;;;;;;;3.50;2.40;;;0.60;98.00;;;;;;5135097;27;20966;-65
2023/01/19 20:29:09;;;;;;;5.00;3.80;;;0.70;98.00;;;;;;5117145;27;21156;-65
2023/01/19 20:31:41;;;;;;;3.20;2.70;;;0.80;98.00;;;;;;5135109;27;20450;-65
2023/01/19 20:34:10;;;;;;;5.23;3.50;;;0.80;98.00;;;;;;5134691;27;20458;-66
2023/01/19 20:36:38;;;;;;;15.37;4.30;;;0.80;98.00;;;;;;5134620;27;20477;-66
2023/01/19 20:39:09;;;;;;;11.20;3.97;;;0.80;98.00;;;;;;5134347;27;20929;-66
2023/01/19 20:41:42;;;;;;;5.80;3.23;;;0.80;98.00;;;;;;5134576;27;20453;-65
2023/01/19 20:44:10;;;;;;;6.27;3.87;;;0.70;98.00;;;;;;5134535;27;20507;-65
2023/01/19 20:46:39;;;;;;;8.17;3.20;;;0.60;98.00;;;;;;5134278;27;20493;-65
2023/01/19 20:49:06;;;;;;;4.23;2.93;;;0.60;98.00;;;;;;5134284;27;20830;-64
2023/01/19 20:51:36;;;;;;;7.07;4.17;;;0.60;98.00;;;;;;5105709;27;20447;-65
2023/01/19 20:54:04;;;;;;;12.70;5.60;;;0.60;98.00;;;;;;5107641;28;20490;-66
2023/01/19 20:56:31;;;;;;;5.77;3.63;;;0.60;98.00;;;;;;5122781;27;20466;-64
2023/01/19 20:59:00;;;;;;;10.07;5.23;;;0.50;98.00;;;;;;5125300;27;20450;-64
2023/01/19 21:01:28;;;;;;;5.00;3.30;;;0.50;98.00;;;;;;5132428;27;20454;-65
2023/01/19 21:03:56;;;;;;;7.30;4.33;;;0.50;98.00;;;;;;5133685;27;20468;-64
2023/01/19 21:06:24;;;;;;;10.97;4.10;;;0.40;98.00;;;;;;5113291;27;20461;-65
2023/01/19 21:08:52;;;;;;;6.73;4.40;;;0.40;98.00;;;;;;5132075;27;20466;-64
2023/01/19 21:11:22;;;;;;;8.20;3.20;;;0.40;98.00;;;;;;5132043;27;20497;-65
2023/01/19 21:13:54;;;;;;;7.83;4.10;;;0.40;98.00;;;;;;5121841;27;20775;-66
2023/01/19 21:16:22;;;;;;;5.97;3.10;;;0.40;98.00;;;;;;5103343;27;20454;-65
2023/01/19 21:18:49;;;;;;;6.70;3.10;;;0.50;98.00;;;;;;5111953;28;20561;-65
2023/01/19 21:21:18;;;;;;;6.47;3.70;;;0.50;98.00;;;;;;5112827;28;20466;-65
2023/01/19 21:23:47;;;;;;;5.37;3.10;;;0.60;98.00;;;;;;5125935;27;20476;-65
2023/01/19 21:26:14;;;;;;;9.60;4.40;;;0.50;98.00;;;;;;5133189;27;20809;-66
2023/01/19 21:28:42;;;;;;;6.80;3.70;;;0.40;98.00;;;;;;5111892;28;20482;-65
2023/01/19 21:31:11;;;;;;;4.40;3.30;;;0.50;98.00;;;;;;5113359;28;20834;-65
2023/01/19 21:33:44;;;;;;;5.53;3.93;;;0.50;98.00;;;;;;5112811;28;20451;-66
2023/01/19 21:36:11;;;;;;;7.97;4.33;;;0.40;98.00;;;;;;5129753;27;20977;-65
2023/01/19 21:38:40;;;;;;;5.47;3.10;;;0.40;98.00;;;;;;5115509;27;20476;-64
2023/01/19 21:41:10;;;;;;;14.93;3.83;;;0.20;98.00;;;;;;5133509;27;20461;-64
2023/01/19 21:43:39;;;;;;;6.80;3.80;;;0.30;98.00;;;;;;5133462;27;20457;-64
2023/01/19 21:46:11;;;;;;;12.33;4.87;;;0.40;98.00;;;;;;5132895;27;20453;-65
2023/01/19 21:48:38;;;;;;;4.77;2.90;;;0.40;98.00;;;;;;5133389;27;20982;-65
2023/01/19 21:51:06;;;;;;;3.27;2.50;;;0.40;98.00;;;;;;5133235;27;20486;-65
2023/01/19 21:53:33;;;;;;;4.57;2.90;;;0.40;98.00;;;;;;5115008;27;20845;-64
2023/01/19 21:56:01;;;;;;;4.97;3.03;;;0.40;98.00;;;;;;5133219;27;20462;-65
2023/01/19 21:58:29;;;;;;;15.43;4.80;;;0.50;98.00;;;;;;5133314;27;20457;-65
2023/01/19 22:01:00;;;;;;;5.03;3.47;;;0.60;98.00;;;;;;5115023;27;20461;-65
2023/01/19 22:03:27;;;;;;;4.77;3.00;;;0.60;98.00;;;;;;5133086;27;20494;-65
2023/01/19 22:05:54;;;;;;;6.03;3.60;;;0.50;98.00;;;;;;5132655;27;20531;-65
2023/01/19 22:08:22;;;;;;;7.73;4.17;;;0.50;98.00;;;;;;5132861;27;20457;-64
2023/01/19 22:10:49;;;;;;;6.33;3.23;;;0.50;98.00;;;;;;5132937;27;20478;-64
2023/01/19 22:13:18;;;;;;;5.53;3.37;;;0.40;98.00;;;;;;5133385;27;20450;-65
2023/01/19 22:15:45;;;;;;;5.60;3.37;;;0.40;98.00;;;;;;5133136;27;20458;-64
2023/01/19 22:18:12;;;;;;;6.37;3.07;;;0.40;98.00;;;;;;5129433;27;20925;-64
2023/01/19 22:20:39;;;;;;;3.50;2.93;;;0.40;98.00;;;;;;5112437;28;20447;-65
2023/01/19 22:23:06;;;;;;;7.33;2.83;;;0.40;98.00;;;;;;5112605;28;20511;-65
2023/01/19 22:25:33;;;;;;;4.47;3.40;;;0.40;98.00;;;;;;5112517;28;20478;-66
2023/01/19 22:28:00;;;;;;;5.73;3.37;;;0.40;98.00;;;;;;5112556;28;20941;-65
2023/01/19 22:30:29;;;;;;;3.63;2.60;;;0.40;98.00;;;;;;5112441;28;20475;-65
2023/01/19 22:32:56;;;;;;;5.67;3.33;;;0.40;98.00;;;;;;5112369;28;20455;-65
2023/01/19 22:35:23;;;;;;;5.23;2.50;;;0.50;98.00;;;;;;5112057;28;20957;-65
2023/01/19 22:37:51;;;;;;;5.93;3.20;;;0.50;98.00;;;;;;5112242;28;20459;-65
2023/01/19 22:40:19;;;;;;;4.13;2.93;;;0.50;98.00;;;;;;5112115;28;20463;-65
2023/01/19 22:42:47;;;;;;;6.37;3.27;;;0.40;98.00;;;;;;5111937;28;20471;-65
2023/01/19 22:45:14;;;;;;;3.30;2.90;;;0.30;98.00;;;;;;5114679;28;20451;-65
2023/01/19 22:47:43;;;;;;;5.40;3.47;;;0.20;98.00;;;;;;5116052;28;20558;-65
2023/01/19 22:50:10;;;;;;;4.57;3.07;;;0.10;98.00;;;;;;5116011;28;20482;-64
2023/01/19 22:52:38;;;;;;;6.13;2.80;;;0.20;98.00;;;;;;5116331;28;20454;-65
2023/01/19 22:55:06;;;;;;;9.80;4.70;;;0.30;98.00;;;;;;5098162;28;20462;-65
2023/01/19 22:57:34;;;;;;;5.67;3.30;;;0.30;98.00;;;;;;5097978;28;20458;-64
2023/01/19 23:00:05;;;;;;;7.10;3.87;;;0.40;98.00;;;;;;5115603;28;20451;-65
2023/01/19 23:02:32;;;;;;;8.30;3.40;;;0.40;98.00;;;;;;5113778;28;20469;-65
2023/01/19 23:05:01;;;;;;;6.00;3.43;;;0.30;98.00;;;;;;5115528;28;20459;-65
2023/01/19 23:07:28;;;;;;;7.30;3.90;;;0.40;98.00;;;;;;5116030;28;21109;-65
2023/01/19 23:09:55;;;;;;;7.80;4.30;;;0.40;98.00;;;;;;5115926;28;20458;-65
2023/01/19 23:12:22;;;;;;;6.53;3.10;;;0.50;98.00;;;;;;5116030;28;20454;-65
2023/01/19 23:14:50;;;;;;;5.27;3.80;;;0.60;98.00;;;;;;5115784;28;20462;-65
2023/01/19 23:17:17;;;;;;;4.83;2.97;;;0.60;98.00;;;;;;5115993;28;20478;-65
2023/01/19 23:19:44;;;;;;;5.73;2.70;;;0.50;98.00;;;;;;5115684;28;20872;-64